Time;durP1;ratioP1;P1;durP2;ratioP2;P2;SDS_P1;SDS_P2;PMS_P1;PMS_P2;Temp;Humidity;BMP_temperature;BMP_pressure;BME280_temperature;BME280_humidity;BME280_pressure;Samples;Min_cycle;Max_cycle;Signal;HPM_P1;HPM_P2
2022/01/19 00:01:02;;;;;;;11.38;10.18;;;17.30;40.60;;;;;;5035694;28;20656;-70
2022/01/19 00:03:29;;;;;;;13.32;9.80;;;17.20;40.60;;;;;;5034203;28;20211;-71
2022/01/19 00:05:56;;;;;;;12.50;9.93;;;17.20;40.70;;;;;;5034208;28;20198;-71
2022/01/19 00:08:26;;;;;;;12.05;9.77;;;17.20;40.80;;;;;;5033968;28;20216;-69
2022/01/19 00:10:53;;;;;;;11.60;9.25;;;17.20;40.60;;;;;;5033983;28;20204;-68
2022/01/19 00:13:20;;;;;;;12.63;9.60;;;17.10;40.60;;;;;;5034053;28;20222;-70
2022/01/19 00:15:47;;;;;;;10.90;9.63;;;17.10;40.80;;;;;;5035298;28;20227;-70
2022/01/19 00:18:15;;;;;;;13.30;10.25;;;17.10;40.80;;;;;;5033843;28;20228;-71
2022/01/19 00:20:42;;;;;;;11.02;8.85;;;17.00;40.80;;;;;;5034040;28;20210;-71
2022/01/19 00:23:09;;;;;;;12.10;9.25;;;17.00;40.90;;;;;;5035200;28;20192;-70
2022/01/19 00:25:38;;;;;;;11.57;9.20;;;17.00;40.90;;;;;;5034022;28;20657;-69
2022/01/19 00:28:05;;;;;;;10.25;8.60;;;17.00;41.10;;;;;;5033387;28;20235;-70
2022/01/19 00:30:32;;;;;;;9.95;8.23;;;16.90;41.00;;;;;;5033645;28;20595;-70
2022/01/19 00:33:00;;;;;;;10.38;8.60;;;16.90;41.10;;;;;;5033861;28;20596;-70
2022/01/19 00:35:27;;;;;;;9.10;7.88;;;16.80;41.00;;;;;;5035110;28;20188;-68
2022/01/19 00:37:54;;;;;;;8.75;7.85;;;16.80;41.10;;;;;;5033269;28;20220;-71
2022/01/19 00:40:21;;;;;;;10.23;7.97;;;16.80;41.20;;;;;;5033319;28;20461;-71
2022/01/19 00:42:51;;;;;;;10.20;8.00;;;16.70;41.20;;;;;;5033195;28;20200;-70
2022/01/19 00:45:19;;;;;;;9.88;7.85;;;16.70;41.20;;;;;;5033469;28;20330;-70
2022/01/19 00:47:46;;;;;;;8.60;7.70;;;16.70;41.20;;;;;;5033039;28;20312;-69
2022/01/19 00:50:16;;;;;;;7.72;7.03;;;16.60;41.20;;;;;;5033375;28;20215;-71
2022/01/19 00:52:43;;;;;;;8.38;7.45;;;16.60;41.40;;;;;;5034410;28;20188;-70
2022/01/19 00:55:11;;;;;;;8.25;7.43;;;16.60;41.30;;;;;;5033175;28;20226;-69
2022/01/19 00:57:38;;;;;;;10.75;7.25;;;16.50;41.30;;;;;;5033097;28;20287;-69
2022/01/19 01:00:09;;;;;;;8.00;6.95;;;16.50;41.30;;;;;;5033102;28;20228;-71
2022/01/19 01:02:36;;;;;;;7.40;6.60;;;16.50;41.30;;;;;;5033256;28;20203;-71
2022/01/19 01:05:03;;;;;;;8.13;6.93;;;16.50;41.30;;;;;;5033084;28;20683;-71
2022/01/19 01:07:33;;;;;;;8.20;7.28;;;16.50;41.30;;;;;;5032775;28;20242;-69
2022/01/19 01:10:00;;;;;;;7.15;6.28;;;16.40;41.20;;;;;;5032987;28;20216;-70
2022/01/19 01:12:32;;;;;;;8.15;7.03;;;16.40;41.30;;;;;;5032933;28;20222;-71
2022/01/19 01:20:30;;;;;;;9.98;6.82;;;16.30;41.30;;;;;;5033049;28;20192;-70
2022/01/19 01:22:57;;;;;;;8.48;6.40;;;16.30;41.30;;;;;;5033010;28;20640;-70
2022/01/19 01:25:24;;;;;;;7.80;6.03;;;16.30;41.30;;;;;;5032706;28;20199;-69
2022/01/19 01:27:51;;;;;;;7.47;6.00;;;16.30;41.40;;;;;;5032744;28;20301;-70
2022/01/19 01:30:19;;;;;;;6.70;6.00;;;16.30;41.40;;;;;;5032695;28;20202;-68
2022/01/19 01:32:48;;;;;;;6.78;6.03;;;16.30;41.50;;;;;;5034272;28;20203;-70
2022/01/19 01:35:15;;;;;;;7.10;6.13;;;16.20;41.40;;;;;;5033176;28;20199;-69
2022/01/19 01:37:42;;;;;;;6.25;5.65;;;16.20;41.30;;;;;;5033987;28;20267;-71
2022/01/19 01:40:13;;;;;;;6.40;5.75;;;16.20;41.60;;;;;;5033085;28;20227;-70
2022/01/19 01:42:40;;;;;;;6.53;5.57;;;16.20;41.60;;;;;;5032829;28;20664;-69
2022/01/19 01:45:12;;;;;;;8.57;5.80;;;16.20;41.70;;;;;;5032720;28;20196;-70
2022/01/19 01:47:43;;;;;;;7.22;5.95;;;16.10;41.70;;;;;;5033735;28;20648;-70
2022/01/19 01:55:41;;;;;;;6.47;5.68;;;16.00;41.90;;;;;;5031971;28;20199;-70
2022/01/19 01:58:08;;;;;;;6.88;5.70;;;16.00;41.90;;;;;;5032082;28;20212;-70
2022/01/19 02:00:36;;;;;;;6.65;5.70;;;16.00;41.90;;;;;;5032004;28;20254;-69
2022/01/19 02:03:03;;;;;;;6.68;5.45;;;16.00;42.00;;;;;;5032037;28;20215;-69
2022/01/19 02:05:35;;;;;;;5.97;5.45;;;15.90;41.70;;;;;;5031862;28;20216;-70
2022/01/19 02:08:07;;;;;;;6.00;4.93;;;15.90;41.80;;;;;;5033024;28;20283;-71
2022/01/19 02:10:42;;;;;;;7.35;5.30;;;15.90;42.00;;;;;;5031796;28;20746;-68
2022/01/19 02:16:12;;;;;;;6.75;5.75;;;15.90;42.00;;;;;;5031656;28;20184;-70
2022/01/19 02:21:43;;;;;;;5.78;5.07;;;15.80;41.90;;;;;;5031645;28;20199;-69
2022/01/19 02:24:13;;;;;;;5.55;4.90;;;15.80;42.20;;;;;;5031488;28;20333;-70
2022/01/19 02:26:59;;;;;;;5.82;5.20;;;15.80;41.90;;;;;;5031599;28;20242;-70
2022/01/19 02:40:37;;;;;;;5.32;4.82;;;15.80;42.10;;;;;;5031172;28;20275;-69
2022/01/19 02:43:08;;;;;;;5.20;4.70;;;15.70;42.30;;;;;;5032644;28;20283;-68
2022/01/19 02:51:07;;;;;;;5.15;4.60;;;15.70;42.20;;;;;;5031330;28;20192;-70
2022/01/19 02:53:36;;;;;;;5.93;4.70;;;15.70;42.00;;;;;;5031069;28;20664;-70
2022/01/19 02:56:08;;;;;;;5.75;4.65;;;15.70;42.10;;;;;;5031105;28;20196;-70
2022/01/19 02:58:40;;;;;;;5.13;4.40;;;15.70;42.00;;;;;;5031047;28;20216;-71
2022/01/19 03:09:20;;;;;;;6.00;4.75;;;15.60;42.00;;;;;;5013421;28;20323;-70
2022/01/19 03:11:47;;;;;;;4.43;4.03;;;15.60;42.10;;;;;;5035003;28;20202;-70
2022/01/19 03:14:14;;;;;;;5.15;4.50;;;15.60;42.00;;;;;;5036369;28;20192;-70
2022/01/19 03:16:42;;;;;;;4.32;3.92;;;15.60;42.00;;;;;;5034974;28;20191;-70
2022/01/19 03:19:10;;;;;;;4.55;4.05;;;15.50;42.00;;;;;;5034742;28;20222;-70
2022/01/19 03:21:38;;;;;;;5.22;4.35;;;15.50;41.90;;;;;;5035167;28;20211;-71
2022/01/19 03:24:05;;;;;;;4.43;4.03;;;15.50;41.80;;;;;;5035839;28;20192;-70
2022/01/19 03:26:34;;;;;;;5.20;4.32;;;15.50;42.00;;;;;;5034811;28;20288;-70
2022/01/19 03:29:23;;;;;;;5.00;4.35;;;15.50;42.00;;;;;;5035588;28;20587;-70
2022/01/19 03:31:50;;;;;;;5.28;3.83;;;15.50;42.20;;;;;;5034624;28;20614;-71
2022/01/19 03:34:17;;;;;;;4.95;4.20;;;15.40;42.00;;;;;;5034346;28;20246;-70
2022/01/19 03:36:50;;;;;;;4.22;3.92;;;15.40;42.10;;;;;;5034752;28;20196;-71
2022/01/19 03:39:17;;;;;;;4.28;3.88;;;15.40;42.10;;;;;;5034388;28;20243;-71
2022/01/19 03:41:46;;;;;;;4.68;4.28;;;15.40;42.10;;;;;;5034482;28;20566;-70
2022/01/19 03:44:13;;;;;;;4.82;4.00;;;15.40;42.00;;;;;;5034953;28;20296;-70
2022/01/19 03:46:53;;;;;;;4.53;4.10;;;15.30;42.00;;;;;;5034175;28;20310;-70
2022/01/19 03:49:24;;;;;;;4.68;4.20;;;15.30;42.00;;;;;;5034152;28;20227;-69
2022/01/19 03:51:52;;;;;;;4.75;4.28;;;15.30;42.00;;;;;;5034230;28;20200;-69
2022/01/19 03:54:20;;;;;;;5.30;4.40;;;15.30;42.00;;;;;;5034222;28;20196;-69
2022/01/19 03:56:48;;;;;;;4.38;3.97;;;15.30;42.00;;;;;;5033834;28;20365;-68
2022/01/19 03:59:15;;;;;;;5.85;4.32;;;15.30;42.60;;;;;;5034001;28;20718;-70
2022/01/19 04:01:43;;;;;;;4.40;4.00;;;15.30;42.00;;;;;;5034127;28;20211;-71
2022/01/19 04:04:33;;;;;;;6.03;4.30;;;15.20;42.00;;;;;;5034049;28;20570;-68
2022/01/19 04:07:07;;;;;;;4.30;3.70;;;15.20;42.00;;;;;;5034131;28;20204;-71
2022/01/19 04:09:35;;;;;;;6.15;4.18;;;15.20;42.00;;;;;;5034107;28;20722;-70
2022/01/19 04:12:04;;;;;;;4.80;4.00;;;15.20;42.00;;;;;;5035056;28;20564;-69
2022/01/19 04:14:32;;;;;;;4.40;4.00;;;15.20;42.00;;;;;;5033854;28;20196;-71
2022/01/19 04:17:00;;;;;;;5.00;4.18;;;15.20;42.00;;;;;;5033791;28;20200;-71
2022/01/19 04:19:30;;;;;;;4.93;4.43;;;15.20;42.10;;;;;;5033409;28;20244;-69
2022/01/19 04:22:02;;;;;;;5.75;4.22;;;15.20;42.00;;;;;;5033671;28;20298;-72
2022/01/19 04:24:31;;;;;;;5.05;4.50;;;15.20;42.00;;;;;;5033976;28;20221;-70
2022/01/19 04:29:51;;;;;;;4.50;4.10;;;15.20;42.00;;;;;;5034409;28;20309;-72
2022/01/19 04:32:23;;;;;;;5.05;4.40;;;15.20;42.00;;;;;;5033997;28;20544;-69
2022/01/19 04:34:51;;;;;;;5.10;4.60;;;15.20;41.90;;;;;;5033940;28;20644;-69
2022/01/19 04:48:36;;;;;;;5.03;4.43;;;15.20;41.90;;;;;;5033149;28;20598;-71
2022/01/19 05:02:16;;;;;;;4.82;4.43;;;15.20;41.80;;;;;;5032835;28;20187;-72
2022/01/19 05:05:24;;;;;;;4.65;4.20;;;15.20;41.70;;;;;;5026951;28;20271;-72
2022/01/19 05:08:00;;;;;;;4.97;4.47;;;15.20;41.90;;;;;;5032775;28;20723;-68
2022/01/19 05:13:26;;;;;;;5.10;4.57;;;15.20;42.00;;;;;;5032665;28;20275;-70
2022/01/19 05:15:54;;;;;;;4.80;4.30;;;15.20;42.00;;;;;;5033128;28;20200;-71
2022/01/19 05:18:25;;;;;;;4.75;4.35;;;15.20;42.00;;;;;;5032778;28;20234;-71
2022/01/19 05:20:52;;;;;;;5.32;4.15;;;15.20;42.50;;;;;;5032715;28;20682;-70
2022/01/19 05:23:45;;;;;;;4.30;3.90;;;15.30;42.00;;;;;;5034068;28;20200;-68
2022/01/19 05:26:12;;;;;;;4.35;3.80;;;15.30;41.90;;;;;;5032962;28;20196;-69
2022/01/19 05:28:41;;;;;;;4.53;4.10;;;15.40;41.90;;;;;;5032293;28;20227;-69
2022/01/19 05:31:08;;;;;;;4.68;4.28;;;15.40;41.70;;;;;;5031958;28;20196;-71
2022/01/19 05:33:37;;;;;;;4.65;4.20;;;15.40;41.40;;;;;;5032605;28;20235;-70
2022/01/19 05:36:05;;;;;;;5.65;4.35;;;15.40;41.40;;;;;;5032422;28;20200;-70
2022/01/19 05:38:44;;;;;;;5.07;4.60;;;15.40;41.40;;;;;;5032379;28;20212;-70
2022/01/19 05:41:23;;;;;;;4.80;4.15;;;15.40;41.90;;;;;;5032466;28;20726;-70
2022/01/19 05:43:51;;;;;;;5.00;4.38;;;15.50;41.50;;;;;;5032449;28;20287;-70
2022/01/19 05:46:18;;;;;;;5.60;4.47;;;15.50;41.30;;;;;;5032921;28;20204;-68
2022/01/19 05:48:47;;;;;;;6.10;5.28;;;15.50;42.00;;;;;;5031851;28;20228;-68
2022/01/19 05:51:14;;;;;;;6.05;5.07;;;15.60;41.30;;;;;;5032233;28;20726;-70
2022/01/19 05:53:41;;;;;;;7.00;5.38;;;15.60;41.00;;;;;;5032053;28;20606;-68
2022/01/19 05:56:09;;;;;;;6.05;5.05;;;15.60;41.10;;;;;;5032080;28;20192;-68
2022/01/19 05:58:57;;;;;;;5.53;4.35;;;15.60;41.00;;;;;;5033362;28;20277;-71
2022/01/19 06:01:24;;;;;;;4.40;4.00;;;15.70;41.00;;;;;;5031942;28;20223;-69
2022/01/19 06:03:53;;;;;;;4.20;3.80;;;15.70;41.00;;;;;;5032000;28;20283;-69
2022/01/19 06:06:25;;;;;;;5.88;4.20;;;15.70;40.90;;;;;;5033630;28;20180;-68
2022/01/19 06:09:34;;;;;;;4.72;3.85;;;15.70;40.90;;;;;;5031814;28;20223;-69
2022/01/19 06:12:04;;;;;;;4.43;4.03;;;15.70;40.80;;;;;;5031720;28;20196;-70
2022/01/19 06:14:31;;;;;;;4.60;4.20;;;15.70;40.60;;;;;;5031810;28;20275;-69
2022/01/19 06:16:58;;;;;;;4.20;3.90;;;15.70;40.70;;;;;;5031719;28;20625;-68
2022/01/19 06:19:27;;;;;;;4.55;4.15;;;15.80;40.70;;;;;;5031665;28;20703;-70
2022/01/19 06:21:54;;;;;;;3.90;3.60;;;15.80;40.80;;;;;;5031832;28;20202;-70
2022/01/19 06:24:21;;;;;;;5.05;4.03;;;15.80;40.60;;;;;;5031738;28;20219;-68
2022/01/19 06:26:49;;;;;;;5.55;4.10;;;15.80;40.40;;;;;;5031866;28;20200;-68
2022/01/19 06:29:16;;;;;;;4.25;3.85;;;15.80;40.70;;;;;;5031532;28;20239;-68
2022/01/19 06:31:43;;;;;;;4.35;3.95;;;15.80;40.80;;;;;;5031504;28;20203;-68
2022/01/19 06:34:13;;;;;;;6.07;4.22;;;15.80;40.80;;;;;;5031505;28;20196;-67
2022/01/19 06:36:56;;;;;;;4.40;4.00;;;15.80;40.60;;;;;;5031946;28;20465;-68
2022/01/19 06:39:46;;;;;;;4.10;3.70;;;15.80;40.70;;;;;;5032865;28;20212;-67
2022/01/19 06:42:13;;;;;;;4.18;3.78;;;15.90;40.80;;;;;;5032901;28;20200;-68
2022/01/19 06:44:42;;;;;;;3.65;3.35;;;15.90;40.80;;;;;;5032729;28;20200;-69
2022/01/19 06:47:10;;;;;;;3.97;3.58;;;15.90;41.10;;;;;;5032647;28;20609;-70
2022/01/19 06:49:37;;;;;;;3.58;3.28;;;15.90;40.90;;;;;;5031594;28;20223;-67
2022/01/19 06:52:07;;;;;;;6.00;3.92;;;15.90;40.80;;;;;;5031368;28;20196;-67
2022/01/19 06:54:35;;;;;;;4.40;3.70;;;16.00;40.70;;;;;;5031150;28;20223;-69
2022/01/19 06:57:03;;;;;;;4.07;3.67;;;16.00;40.40;;;;;;5031077;28;20196;-68
2022/01/19 06:59:35;;;;;;;6.78;4.00;;;16.00;40.40;;;;;;5031268;28;20243;-69
2022/01/19 07:02:15;;;;;;;4.35;3.95;;;16.00;40.40;;;;;;5031054;28;20291;-68
2022/01/19 07:04:55;;;;;;;4.63;3.90;;;16.00;40.30;;;;;;5032322;28;20172;-70
2022/01/19 07:07:44;;;;;;;4.75;4.28;;;16.00;40.00;;;;;;5031360;28;20196;-69
2022/01/19 07:10:12;;;;;;;5.82;4.65;;;16.00;39.90;;;;;;5031339;28;20299;-69
2022/01/19 07:12:39;;;;;;;5.03;4.53;;;16.00;40.20;;;;;;5031488;28;20211;-68
2022/01/19 07:15:09;;;;;;;5.07;4.40;;;16.00;40.10;;;;;;5031640;28;20192;-68
2022/01/19 07:17:36;;;;;;;5.38;4.47;;;16.00;40.00;;;;;;5032374;28;20348;-68
2022/01/19 07:20:04;;;;;;;4.05;3.58;;;16.00;40.60;;;;;;5031496;28;20246;-70
2022/01/19 07:22:31;;;;;;;4.00;3.60;;;16.00;40.10;;;;;;5031932;28;20392;-69
2022/01/19 07:25:03;;;;;;;4.72;3.60;;;16.00;40.00;;;;;;5031534;28;20251;-69
2022/01/19 07:27:31;;;;;;;5.07;3.90;;;16.00;39.90;;;;;;5031975;28;20207;-67
2022/01/19 07:29:58;;;;;;;3.67;3.30;;;16.10;39.90;;;;;;5031472;28;20724;-67
2022/01/19 07:32:29;;;;;;;4.20;3.80;;;16.10;40.00;;;;;;5031827;28;20207;-69
2022/01/19 07:34:57;;;;;;;4.43;4.03;;;16.10;39.90;;;;;;5031256;28;20230;-67
2022/01/19 07:37:24;;;;;;;5.40;3.78;;;16.10;39.50;;;;;;5031395;28;20202;-68
2022/01/19 07:39:52;;;;;;;5.00;4.50;;;16.10;39.60;;;;;;5031401;28;20239;-68
2022/01/19 07:42:21;;;;;;;3.53;3.20;;;16.10;39.60;;;;;;5031592;28;20192;-66
2022/01/19 07:45:07;;;;;;;6.45;4.25;;;16.10;40.20;;;;;;5032736;28;20179;-68
2022/01/19 07:47:53;;;;;;;4.30;3.90;;;16.10;39.20;;;;;;5033524;28;20203;-67
2022/01/19 07:50:42;;;;;;;4.35;4.05;;;16.20;39.50;;;;;;5030906;28;20188;-68
2022/01/19 07:53:31;;;;;;;4.22;3.78;;;16.20;39.50;;;;;;5033331;28;20550;-68
2022/01/19 07:56:18;;;;;;;5.38;4.65;;;16.20;39.50;;;;;;5035840;28;20212;-67
2022/01/19 07:59:07;;;;;;;5.57;4.30;;;16.20;39.40;;;;;;5034816;28;20208;-68
2022/01/19 08:01:49;;;;;;;4.70;4.05;;;16.20;39.60;;;;;;5034932;28;20291;-69
2022/01/19 08:04:39;;;;;;;4.95;3.97;;;16.20;39.60;;;;;;5036038;28;20196;-69
2022/01/19 08:07:06;;;;;;;5.22;4.60;;;16.20;39.50;;;;;;5035830;28;20196;-68
2022/01/19 08:09:33;;;;;;;4.43;4.03;;;16.20;39.50;;;;;;5034908;28;20216;-67
2022/01/19 08:12:01;;;;;;;4.57;4.03;;;16.20;39.30;;;;;;5034952;28;20188;-67
2022/01/19 08:14:31;;;;;;;4.90;4.40;;;16.30;39.20;;;;;;5034486;28;20246;-70
2022/01/19 08:16:59;;;;;;;5.45;4.22;;;16.30;39.20;;;;;;5034501;28;20609;-68
2022/01/19 08:19:31;;;;;;;5.72;4.28;;;16.30;39.00;;;;;;5034399;28;20216;-70
2022/01/19 08:21:58;;;;;;;4.47;4.07;;;16.20;38.80;;;;;;5034250;28;20679;-68
2022/01/19 08:24:26;;;;;;;4.53;4.13;;;16.30;39.00;;;;;;5034305;28;20261;-66
2022/01/19 08:26:55;;;;;;;4.20;3.75;;;16.30;39.10;;;;;;5034107;28;20253;-68
2022/01/19 08:29:27;;;;;;;4.30;3.80;;;16.30;39.40;;;;;;5034049;28;20224;-68
2022/01/19 08:32:01;;;;;;;5.47;4.05;;;16.30;39.10;;;;;;5034487;28;20196;-67
2022/01/19 08:34:55;;;;;;;4.55;4.05;;;16.30;39.00;;;;;;5026529;28;20688;-68
2022/01/19 08:37:25;;;;;;;4.05;3.70;;;16.40;39.00;;;;;;5035582;28;20200;-68
2022/01/19 08:40:00;;;;;;;4.85;4.45;;;16.40;39.10;;;;;;5033577;28;20215;-70
2022/01/19 08:42:28;;;;;;;3.75;3.45;;;16.40;39.00;;;;;;5033883;28;20219;-69
2022/01/19 08:44:56;;;;;;;4.00;3.60;;;16.40;38.90;;;;;;5033457;28;20287;-67
2022/01/19 08:47:28;;;;;;;5.57;4.10;;;16.40;39.00;;;;;;5033631;28;20204;-67
2022/01/19 08:50:17;;;;;;;5.10;4.13;;;16.40;38.90;;;;;;5034362;28;20265;-67
2022/01/19 08:53:01;;;;;;;4.40;4.00;;;16.40;38.90;;;;;;5033181;28;20201;-69
2022/01/19 08:55:49;;;;;;;4.80;4.18;;;16.50;38.80;;;;;;5033259;28;20200;-70
2022/01/19 08:58:17;;;;;;;4.97;4.30;;;16.50;38.90;;;;;;5033250;28;20266;-67
2022/01/19 09:00:44;;;;;;;4.13;3.72;;;16.50;38.90;;;;;;5033126;28;20568;-67
2022/01/19 09:03:13;;;;;;;4.72;4.20;;;16.50;39.00;;;;;;5032961;28;20200;-66
2022/01/19 09:05:40;;;;;;;4.00;3.65;;;16.50;38.80;;;;;;5032789;28;20192;-69
2022/01/19 09:08:08;;;;;;;4.20;3.80;;;16.50;38.80;;;;;;5032992;28;20307;-68
2022/01/19 09:10:35;;;;;;;4.68;4.28;;;16.50;38.90;;;;;;5032850;28;20307;-68
2022/01/19 09:13:02;;;;;;;6.00;5.40;;;16.50;38.90;;;;;;5032902;28;20286;-67
2022/01/19 09:15:29;;;;;;;6.97;6.00;;;16.50;38.90;;;;;;5033828;28;20220;-70
2022/01/19 09:17:56;;;;;;;6.53;5.47;;;16.50;38.90;;;;;;5034023;28;20188;-68
2022/01/19 09:20:25;;;;;;;5.03;4.55;;;16.60;38.90;;;;;;5034035;28;20264;-67
2022/01/19 09:22:52;;;;;;;5.60;5.10;;;16.50;39.10;;;;;;5032576;28;20203;-66
2022/01/19 09:25:19;;;;;;;4.80;4.40;;;16.50;38.70;;;;;;5032438;28;20204;-68
2022/01/19 09:27:46;;;;;;;5.32;4.85;;;16.60;39.00;;;;;;5032738;28;20275;-68
2022/01/19 09:30:15;;;;;;;4.60;4.20;;;16.60;38.90;;;;;;5032435;28;20219;-67
2022/01/19 09:32:44;;;;;;;4.78;4.38;;;16.60;38.90;;;;;;5032368;28;20243;-69
2022/01/19 09:35:11;;;;;;;5.25;4.75;;;16.60;38.90;;;;;;5033533;28;20188;-68
2022/01/19 09:37:40;;;;;;;4.55;4.15;;;16.60;38.90;;;;;;5032370;28;20292;-68
2022/01/19 09:40:08;;;;;;;5.85;4.47;;;16.60;39.00;;;;;;5032157;28;20776;-67
2022/01/19 09:42:35;;;;;;;5.63;5.13;;;16.60;38.90;;;;;;5033933;28;20555;-67
2022/01/19 09:45:02;;;;;;;5.10;4.63;;;16.70;38.80;;;;;;5032243;28;20258;-69
2022/01/19 09:47:29;;;;;;;4.43;4.03;;;16.70;38.90;;;;;;5032053;28;20707;-67
2022/01/19 09:49:56;;;;;;;4.95;4.50;;;16.70;38.90;;;;;;5032223;28;20227;-67
2022/01/19 09:52:23;;;;;;;5.07;4.57;;;16.70;38.80;;;;;;5032193;28;20581;-69
2022/01/19 09:54:54;;;;;;;5.28;4.78;;;16.70;39.00;;;;;;5032254;28;20287;-67
2022/01/19 09:57:21;;;;;;;5.63;4.88;;;16.70;39.00;;;;;;5032541;28;20210;-67
2022/01/19 09:59:48;;;;;;;5.43;4.93;;;16.70;39.00;;;;;;5032209;28;20212;-66
2022/01/19 10:02:16;;;;;;;5.07;4.57;;;16.70;38.80;;;;;;5032308;28;20196;-69
2022/01/19 10:04:46;;;;;;;5.85;4.80;;;16.70;38.60;;;;;;5032464;28;20200;-69
2022/01/19 10:07:14;;;;;;;6.50;5.20;;;16.70;38.90;;;;;;5032964;28;20269;-68
2022/01/19 10:09:54;;;;;;;5.30;4.80;;;16.80;39.40;;;;;;5034015;28;20219;-66
2022/01/19 10:18:09;;;;;;;5.43;4.93;;;16.90;38.80;;;;;;5033058;28;20172;-70
2022/01/19 10:20:36;;;;;;;6.18;5.57;;;16.80;38.70;;;;;;5031952;28;20199;-67
2022/01/19 10:23:03;;;;;;;6.57;4.88;;;16.80;38.60;;;;;;5032855;28;20199;-68
2022/01/19 10:25:49;;;;;;;5.72;4.75;;;16.90;38.80;;;;;;5031468;28;20204;-68
2022/01/19 10:28:16;;;;;;;6.32;5.03;;;16.90;38.70;;;;;;5031708;28;20715;-68
2022/01/19 10:30:43;;;;;;;5.10;4.70;;;16.90;38.70;;;;;;5032930;28;20230;-68
2022/01/19 10:33:16;;;;;;;5.40;4.90;;;16.90;38.80;;;;;;5031716;28;20254;-69
2022/01/19 10:35:44;;;;;;;5.60;5.10;;;16.90;38.50;;;;;;5031466;28;20196;-67
2022/01/19 10:38:14;;;;;;;5.13;4.68;;;17.00;38.60;;;;;;5031406;28;20327;-67
2022/01/19 10:40:43;;;;;;;4.75;4.35;;;16.90;38.60;;;;;;5031454;28;20192;-67
2022/01/19 10:43:28;;;;;;;6.30;4.85;;;17.00;38.60;;;;;;5031312;28;20222;-67
2022/01/19 10:45:55;;;;;;;6.18;4.68;;;17.00;38.80;;;;;;5032526;28;20228;-68
2022/01/19 10:48:33;;;;;;;5.07;4.68;;;17.00;38.50;;;;;;5031344;28;20223;-69
2022/01/19 10:51:11;;;;;;;5.35;4.85;;;17.00;38.40;;;;;;5031232;28;20215;-67
2022/01/19 10:53:39;;;;;;;4.18;3.78;;;17.00;38.40;;;;;;5032477;28;20613;-67
2022/01/19 10:56:06;;;;;;;5.07;4.65;;;17.00;38.70;;;;;;5031276;28;20538;-69
2022/01/19 10:58:34;;;;;;;5.60;4.90;;;17.10;38.70;;;;;;5030933;28;20224;-67
2022/01/19 11:01:02;;;;;;;5.10;4.65;;;17.10;38.40;;;;;;5029799;28;20200;-68
2022/01/19 11:03:29;;;;;;;5.20;4.70;;;17.10;38.60;;;;;;5031098;28;20218;-68
2022/01/19 11:05:57;;;;;;;5.20;4.50;;;17.10;38.50;;;;;;5031080;28;20202;-68
2022/01/19 11:08:25;;;;;;;5.22;4.72;;;17.10;38.00;;;;;;5030966;28;20216;-68
2022/01/19 11:10:53;;;;;;;5.65;5.15;;;17.10;38.40;;;;;;5030967;28;20216;-67
2022/01/19 11:13:28;;;;;;;5.10;4.60;;;17.10;38.30;;;;;;5031146;28;20290;-68
2022/01/19 11:15:57;;;;;;;4.55;4.15;;;17.20;38.40;;;;;;5030909;28;20196;-67
2022/01/19 11:18:25;;;;;;;4.88;4.47;;;17.20;38.40;;;;;;5032403;28;20212;-68
2022/01/19 11:20:52;;;;;;;5.03;4.53;;;17.20;38.40;;;;;;5031014;28;20216;-69
2022/01/19 11:23:27;;;;;;;5.18;4.70;;;17.20;38.30;;;;;;5032138;28;20694;-69
2022/01/19 11:25:57;;;;;;;4.70;4.30;;;17.20;38.40;;;;;;5030935;28;20192;-67
2022/01/19 11:28:29;;;;;;;5.57;4.43;;;17.30;38.50;;;;;;5032876;28;20219;-67
2022/01/19 11:30:57;;;;;;;4.43;4.03;;;17.30;38.60;;;;;;5034540;28;20251;-66
2022/01/19 11:33:25;;;;;;;4.78;4.00;;;17.30;38.30;;;;;;5035238;28;20295;-68
2022/01/19 11:35:54;;;;;;;4.88;4.43;;;17.40;38.50;;;;;;5034899;28;20204;-69
2022/01/19 11:38:33;;;;;;;5.50;4.20;;;17.40;38.40;;;;;;5034789;28;20251;-70
2022/01/19 11:41:03;;;;;;;4.20;3.80;;;17.40;38.60;;;;;;5035854;28;20184;-68
2022/01/19 11:43:30;;;;;;;4.38;3.97;;;17.50;38.60;;;;;;5035915;28;20727;-67
2022/01/19 11:45:59;;;;;;;4.20;3.88;;;17.50;38.90;;;;;;5035736;28;20231;-67
2022/01/19 11:48:27;;;;;;;5.00;4.50;;;17.50;38.40;;;;;;5034751;28;20588;-69
2022/01/19 11:50:55;;;;;;;4.90;4.15;;;17.60;38.40;;;;;;5035810;28;20299;-69
2022/01/19 11:53:22;;;;;;;5.47;4.60;;;17.60;38.20;;;;;;5034613;28;20659;-67
2022/01/19 11:56:04;;;;;;;5.90;4.30;;;17.60;38.20;;;;;;5034699;28;20692;-69
2022/01/19 11:58:31;;;;;;;4.65;4.25;;;17.70;38.20;;;;;;5034305;28;20593;-67
2022/01/19 12:00:59;;;;;;;5.15;4.72;;;17.60;38.20;;;;;;5035451;28;20192;-69
2022/01/19 12:03:29;;;;;;;3.88;3.58;;;17.70;38.20;;;;;;5035703;28;20587;-68
2022/01/19 12:05:56;;;;;;;4.53;4.13;;;17.70;38.30;;;;;;5034260;28;20200;-67
2022/01/19 12:08:32;;;;;;;5.07;4.28;;;17.70;38.20;;;;;;5035505;28;20222;-66
2022/01/19 12:11:12;;;;;;;5.03;4.53;;;17.80;38.20;;;;;;5033808;28;20362;-68
2022/01/19 12:13:55;;;;;;;5.10;4.60;;;17.80;38.00;;;;;;5033983;28;20196;-67
2022/01/19 12:16:47;;;;;;;4.38;3.97;;;17.90;38.10;;;;;;5033897;28;20200;-68
2022/01/19 12:19:16;;;;;;;4.90;4.50;;;17.90;38.20;;;;;;5033937;28;20738;-67
2022/01/19 12:21:45;;;;;;;4.53;4.07;;;18.00;38.20;;;;;;5034090;28;20188;-67
2022/01/19 12:24:25;;;;;;;4.75;4.35;;;18.00;38.20;;;;;;5035436;28;20184;-68
2022/01/19 12:27:00;;;;;;;5.03;4.53;;;18.00;38.20;;;;;;5033833;28;20188;-69
2022/01/19 12:29:45;;;;;;;4.90;4.25;;;18.10;38.10;;;;;;5034040;28;20545;-68
2022/01/19 12:32:52;;;;;;;5.10;4.60;;;18.00;38.20;;;;;;5035614;28;20195;-68
2022/01/19 12:35:34;;;;;;;5.03;4.53;;;18.10;38.10;;;;;;5025952;28;20321;-69
2022/01/19 12:38:03;;;;;;;5.03;4.53;;;18.20;38.80;;;;;;5034009;28;20648;-69
2022/01/19 12:40:49;;;;;;;5.00;4.50;;;18.20;38.10;;;;;;5034138;28;20564;-67
2022/01/19 12:43:44;;;;;;;4.97;4.47;;;18.20;37.90;;;;;;5033952;28;20234;-69
2022/01/19 12:46:13;;;;;;;5.97;4.80;;;18.20;37.70;;;;;;4978560;28;20204;-68
2022/01/19 12:48:45;;;;;;;4.95;4.45;;;18.20;37.70;;;;;;5035290;28;20219;-69
2022/01/19 12:51:37;;;;;;;4.93;4.43;;;18.20;37.80;;;;;;5034326;28;20219;-68
2022/01/19 12:54:05;;;;;;;5.10;4.60;;;18.20;38.00;;;;;;5035509;28;20194;-69
2022/01/19 12:56:34;;;;;;;5.45;4.47;;;18.30;37.80;;;;;;5034209;28;20200;-67
2022/01/19 12:59:02;;;;;;;4.68;4.18;;;18.30;37.60;;;;;;5036093;28;20290;-69
2022/01/19 13:01:30;;;;;;;4.50;4.10;;;18.30;37.60;;;;;;5034875;28;20202;-67
2022/01/19 13:03:57;;;;;;;5.13;4.30;;;18.30;37.70;;;;;;5034166;28;20279;-68
2022/01/19 13:06:26;;;;;;;4.90;4.47;;;18.30;37.60;;;;;;5034075;28;20291;-68
2022/01/19 13:09:01;;;;;;;4.32;3.92;;;18.30;37.80;;;;;;5033935;28;20635;-67
2022/01/19 13:11:35;;;;;;;4.22;3.85;;;18.30;37.90;;;;;;5033638;28;20484;-67
2022/01/19 13:14:04;;;;;;;4.28;3.88;;;18.30;37.60;;;;;;5033560;28;20198;-66
2022/01/19 13:16:43;;;;;;;4.15;3.83;;;18.30;37.70;;;;;;5033598;28;20310;-67
2022/01/19 13:19:12;;;;;;;4.60;4.20;;;18.30;38.10;;;;;;5033566;28;20569;-68
2022/01/19 13:21:39;;;;;;;4.18;3.70;;;18.30;37.50;;;;;;5033279;28;20196;-68
2022/01/19 13:24:12;;;;;;;4.25;3.85;;;18.30;37.70;;;;;;5034993;28;20188;-67
2022/01/19 13:26:41;;;;;;;5.25;4.47;;;18.30;37.80;;;;;;5033356;28;20188;-69
2022/01/19 13:29:20;;;;;;;5.35;4.18;;;18.30;37.70;;;;;;5034141;28;20306;-68
2022/01/19 13:32:01;;;;;;;4.20;3.80;;;18.30;37.60;;;;;;5033606;28;20329;-69
2022/01/19 13:34:28;;;;;;;4.60;3.90;;;18.40;37.90;;;;;;5033683;28;20577;-68
2022/01/19 13:36:59;;;;;;;5.38;4.10;;;18.40;37.90;;;;;;5033801;28;20215;-69
2022/01/19 13:39:28;;;;;;;4.32;3.70;;;18.30;37.70;;;;;;5033315;28;20266;-69
2022/01/19 13:41:57;;;;;;;4.40;4.00;;;18.30;37.80;;;;;;5033334;28;20192;-69
2022/01/19 13:44:30;;;;;;;4.10;3.70;;;18.30;37.90;;;;;;5034641;28;20270;-70
2022/01/19 13:47:28;;;;;;;5.05;4.55;;;18.30;38.00;;;;;;5033027;28;20214;-67
2022/01/19 13:49:55;;;;;;;4.90;4.50;;;18.30;38.00;;;;;;5031689;28;20224;-69
2022/01/19 13:52:23;;;;;;;5.45;3.97;;;18.40;38.10;;;;;;5032355;28;20219;-67
2022/01/19 13:54:52;;;;;;;4.07;3.65;;;18.40;38.10;;;;;;5035369;28;20192;-67
2022/01/19 13:57:29;;;;;;;4.40;3.90;;;18.40;38.00;;;;;;5032830;28;20281;-66
2022/01/19 14:00:07;;;;;;;4.60;3.75;;;18.40;38.10;;;;;;5034257;28;20246;-66
2022/01/19 14:02:35;;;;;;;4.00;3.58;;;18.40;38.00;;;;;;5033416;28;20660;-68
2022/01/19 14:05:04;;;;;;;4.13;3.70;;;18.40;37.70;;;;;;5033047;28;20200;-69
2022/01/19 14:07:31;;;;;;;4.43;3.67;;;18.30;37.90;;;;;;5032727;28;20204;-68
2022/01/19 14:10:07;;;;;;;3.95;3.55;;;18.30;38.00;;;;;;5033075;28;20783;-67
2022/01/19 14:12:34;;;;;;;4.68;3.78;;;18.40;38.00;;;;;;5032360;28;20706;-69
2022/01/19 14:15:03;;;;;;;5.35;3.70;;;18.30;38.10;;;;;;5032344;28;20218;-67
2022/01/19 14:17:31;;;;;;;3.95;3.55;;;18.40;37.90;;;;;;5032368;28;20192;-66
2022/01/19 14:19:59;;;;;;;4.88;3.80;;;18.30;37.90;;;;;;5033591;28;20607;-68
2022/01/19 14:22:29;;;;;;;4.10;3.53;;;18.30;37.70;;;;;;5032233;28;20196;-67